sensor_id;sensor_type;location;lat;lon;timestamp;P1;durP1;ratioP1;P2;durP2;ratioP2
55655;SDS011;41530;52.382;5.270;2023-02-15T00:01:41;9.27;;;6.38;;
55655;SDS011;41530;52.382;5.270;2023-02-15T00:04:08;10.80;;;7.32;;
55655;SDS011;41530;52.382;5.270;2023-02-15T00:06:38;9.98;;;6.80;;
55655;SDS011;41530;52.382;5.270;2023-02-15T00:09:05;10.77;;;6.88;;
55655;SDS011;41530;52.382;5.270;2023-02-15T00:11:32;8.88;;;6.43;;
55655;SDS011;41530;52.382;5.270;2023-02-15T00:14:18;11.98;;;6.78;;
55655;SDS011;41530;52.382;5.270;2023-02-15T00:16:47;10.63;;;7.10;;
55655;SDS011;41530;52.382;5.270;2023-02-15T00:19:15;14.25;;;6.60;;
55655;SDS011;41530;52.382;5.270;2023-02-15T00:21:43;9.90;;;6.63;;
55655;SDS011;41530;52.382;5.270;2023-02-15T00:24:11;10.27;;;7.30;;
55655;SDS011;41530;52.382;5.270;2023-02-15T00:26:39;8.57;;;6.70;;
55655;SDS011;41530;52.382;5.270;2023-02-15T00:29:07;9.68;;;6.88;;
55655;SDS011;41530;52.382;5.270;2023-02-15T00:31:35;10.88;;;7.10;;
55655;SDS011;41530;52.382;5.270;2023-02-15T00:34:03;9.18;;;6.30;;
55655;SDS011;41530;52.382;5.270;2023-02-15T00:36:32;10.23;;;7.03;;
55655;SDS011;41530;52.382;5.270;2023-02-15T00:38:59;9.43;;;6.35;;
55655;SDS011;41530;52.382;5.270;2023-02-15T00:41:26;13.75;;;7.05;;
55655;SDS011;41530;52.382;5.270;2023-02-15T00:43:52;11.63;;;6.10;;
55655;SDS011;41530;52.382;5.270;2023-02-15T00:46:19;11.05;;;6.75;;
55655;SDS011;41530;52.382;5.270;2023-02-15T00:48:46;10.73;;;6.70;;
55655;SDS011;41530;52.382;5.270;2023-02-15T00:51:12;8.30;;;6.18;;
55655;SDS011;41530;52.382;5.270;2023-02-15T00:53:39;10.48;;;7.05;;
55655;SDS011;41530;52.382;5.270;2023-02-15T00:56:05;8.75;;;6.15;;
55655;SDS011;41530;52.382;5.270;2023-02-15T00:58:32;9.88;;;6.80;;
55655;SDS011;41530;52.382;5.270;2023-02-15T01:01:03;10.65;;;6.70;;
55655;SDS011;41530;52.382;5.270;2023-02-15T01:03:31;9.23;;;6.55;;
55655;SDS011;41530;52.382;5.270;2023-02-15T01:05:58;12.85;;;6.45;;
55655;SDS011;41530;52.382;5.270;2023-02-15T01:08:25;8.48;;;6.35;;
55655;SDS011;41530;52.382;5.270;2023-02-15T01:10:52;8.60;;;5.95;;
55655;SDS011;41530;52.382;5.270;2023-02-15T01:13:19;9.40;;;6.50;;
55655;SDS011;41530;52.382;5.270;2023-02-15T01:15:51;9.25;;;6.30;;
55655;SDS011;41530;52.382;5.270;2023-02-15T01:18:19;8.85;;;6.30;;
55655;SDS011;41530;52.382;5.270;2023-02-15T01:20:46;6.80;;;5.50;;
55655;SDS011;41530;52.382;5.270;2023-02-15T01:23:13;8.93;;;6.38;;
55655;SDS011;41530;52.382;5.270;2023-02-15T01:25:41;8.57;;;6.20;;
55655;SDS011;41530;52.382;5.270;2023-02-15T01:28:08;9.75;;;6.25;;
55655;SDS011;41530;52.382;5.270;2023-02-15T01:30:34;8.70;;;6.50;;
55655;SDS011;41530;52.382;5.270;2023-02-15T01:33:01;9.10;;;5.93;;
55655;SDS011;41530;52.382;5.270;2023-02-15T01:35:28;11.77;;;6.88;;
55655;SDS011;41530;52.382;5.270;2023-02-15T01:37:55;8.95;;;6.43;;
55655;SDS011;41530;52.382;5.270;2023-02-15T01:40:22;10.48;;;6.60;;
55655;SDS011;41530;52.382;5.270;2023-02-15T01:42:50;7.40;;;5.95;;
55655;SDS011;41530;52.382;5.270;2023-02-15T01:47:52;8.60;;;6.15;;
55655;SDS011;41530;52.382;5.270;2023-02-15T01:53:03;9.48;;;6.22;;
55655;SDS011;41530;52.382;5.270;2023-02-15T01:58:32;8.88;;;6.03;;
55655;SDS011;41530;52.382;5.270;2023-02-15T02:01:01;8.23;;;5.78;;
55655;SDS011;41530;52.382;5.270;2023-02-15T02:06:15;8.47;;;6.10;;
55655;SDS011;41530;52.382;5.270;2023-02-15T02:08:42;8.07;;;5.80;;
55655;SDS011;41530;52.382;5.270;2023-02-15T02:11:12;9.20;;;6.25;;
55655;SDS011;41530;52.382;5.270;2023-02-15T02:13:41;9.68;;;6.50;;
55655;SDS011;41530;52.382;5.270;2023-02-15T02:27:15;8.25;;;5.72;;
55655;SDS011;41530;52.382;5.270;2023-02-15T02:42:49;7.05;;;5.22;;
55655;SDS011;41530;52.382;5.270;2023-02-15T02:45:26;7.78;;;5.60;;
55655;SDS011;41530;52.382;5.270;2023-02-15T02:48:03;9.13;;;5.63;;
55655;SDS011;41530;52.382;5.270;2023-02-15T02:50:34;8.57;;;5.90;;
55655;SDS011;41530;52.382;5.270;2023-02-15T02:53:00;8.10;;;5.40;;
55655;SDS011;41530;52.382;5.270;2023-02-15T02:55:31;9.70;;;5.80;;
55655;SDS011;41530;52.382;5.270;2023-02-15T03:00:44;8.35;;;5.88;;
55655;SDS011;41530;52.382;5.270;2023-02-15T03:03:24;6.75;;;5.43;;
55655;SDS011;41530;52.382;5.270;2023-02-15T03:06:00;7.18;;;5.50;;
55655;SDS011;41530;52.382;5.270;2023-02-15T03:08:33;8.50;;;5.57;;
55655;SDS011;41530;52.382;5.270;2023-02-15T03:11:04;10.20;;;6.20;;
55655;SDS011;41530;52.382;5.270;2023-02-15T03:13:31;8.15;;;5.60;;
55655;SDS011;41530;52.382;5.270;2023-02-15T03:15:59;8.63;;;5.75;;
55655;SDS011;41530;52.382;5.270;2023-02-15T03:18:48;7.47;;;5.22;;
55655;SDS011;41530;52.382;5.270;2023-02-15T03:21:26;8.40;;;5.70;;
55655;SDS011;41530;52.382;5.270;2023-02-15T03:23:59;7.65;;;5.13;;
55655;SDS011;41530;52.382;5.270;2023-02-15T03:26:33;7.90;;;5.18;;
55655;SDS011;41530;52.382;5.270;2023-02-15T03:29:02;7.38;;;5.20;;
55655;SDS011;41530;52.382;5.270;2023-02-15T03:31:32;6.72;;;4.85;;
55655;SDS011;41530;52.382;5.270;2023-02-15T03:34:04;7.20;;;5.40;;
55655;SDS011;41530;52.382;5.270;2023-02-15T03:36:40;7.57;;;5.50;;
55655;SDS011;41530;52.382;5.270;2023-02-15T03:44:28;6.97;;;4.88;;
55655;SDS011;41530;52.382;5.270;2023-02-15T03:47:04;6.68;;;4.95;;
55655;SDS011;41530;52.382;5.270;2023-02-15T03:49:37;6.93;;;5.40;;
55655;SDS011;41530;52.382;5.270;2023-02-15T03:52:09;8.55;;;5.00;;
55655;SDS011;41530;52.382;5.270;2023-02-15T03:54:37;6.90;;;5.00;;
55655;SDS011;41530;52.382;5.270;2023-02-15T03:57:19;7.15;;;5.35;;
55655;SDS011;41530;52.382;5.270;2023-02-15T04:00:16;7.10;;;5.38;;
55655;SDS011;41530;52.382;5.270;2023-02-15T04:03:11;7.03;;;4.93;;
55655;SDS011;41530;52.382;5.270;2023-02-15T04:05:42;7.43;;;5.28;;
55655;SDS011;41530;52.382;5.270;2023-02-15T04:08:10;7.72;;;4.93;;
55655;SDS011;41530;52.382;5.270;2023-02-15T04:10:37;8.77;;;5.13;;
55655;SDS011;41530;52.382;5.270;2023-02-15T04:13:20;6.75;;;5.10;;
55655;SDS011;41530;52.382;5.270;2023-02-15T04:15:49;7.15;;;5.50;;
55655;SDS011;41530;52.382;5.270;2023-02-15T04:18:36;6.50;;;4.90;;
55655;SDS011;41530;52.382;5.270;2023-02-15T04:21:28;7.72;;;5.55;;
55655;SDS011;41530;52.382;5.270;2023-02-15T04:24:15;10.55;;;5.50;;
55655;SDS011;41530;52.382;5.270;2023-02-15T04:27:01;7.72;;;5.53;;
55655;SDS011;41530;52.382;5.270;2023-02-15T04:29:29;7.10;;;5.13;;
55655;SDS011;41530;52.382;5.270;2023-02-15T04:31:57;9.55;;;5.75;;
55655;SDS011;41530;52.382;5.270;2023-02-15T04:34:25;9.10;;;5.40;;
55655;SDS011;41530;52.382;5.270;2023-02-15T04:36:52;6.72;;;5.07;;
55655;SDS011;41530;52.382;5.270;2023-02-15T04:39:19;6.85;;;4.97;;
55655;SDS011;41530;52.382;5.270;2023-02-15T04:41:46;7.25;;;5.45;;
55655;SDS011;41530;52.382;5.270;2023-02-15T04:44:14;7.80;;;5.32;;
55655;SDS011;41530;52.382;5.270;2023-02-15T04:46:41;9.10;;;5.38;;
55655;SDS011;41530;52.382;5.270;2023-02-15T04:49:08;7.28;;;5.03;;
55655;SDS011;41530;52.382;5.270;2023-02-15T04:51:35;8.70;;;5.63;;
55655;SDS011;41530;52.382;5.270;2023-02-15T04:54:01;7.55;;;5.50;;
55655;SDS011;41530;52.382;5.270;2023-02-15T04:56:28;7.72;;;5.25;;
55655;SDS011;41530;52.382;5.270;2023-02-15T04:58:56;8.00;;;5.63;;
55655;SDS011;41530;52.382;5.270;2023-02-15T05:01:23;7.57;;;5.30;;
55655;SDS011;41530;52.382;5.270;2023-02-15T05:03:49;8.27;;;5.00;;
55655;SDS011;41530;52.382;5.270;2023-02-15T05:06:16;7.13;;;5.10;;
55655;SDS011;41530;52.382;5.270;2023-02-15T05:08:43;8.25;;;5.88;;
55655;SDS011;41530;52.382;5.270;2023-02-15T05:11:09;7.32;;;5.07;;
55655;SDS011;41530;52.382;5.270;2023-02-15T05:13:36;8.60;;;5.65;;
55655;SDS011;41530;52.382;5.270;2023-02-15T05:16:02;13.35;;;5.70;;
55655;SDS011;41530;52.382;5.270;2023-02-15T05:18:29;6.70;;;5.20;;
55655;SDS011;41530;52.382;5.270;2023-02-15T05:20:56;9.07;;;5.70;;
55655;SDS011;41530;52.382;5.270;2023-02-15T05:23:23;8.63;;;5.75;;
55655;SDS011;41530;52.382;5.270;2023-02-15T05:25:49;10.93;;;5.55;;
55655;SDS011;41530;52.382;5.270;2023-02-15T05:28:35;7.80;;;5.40;;
55655;SDS011;41530;52.382;5.270;2023-02-15T05:31:06;8.15;;;5.57;;
55655;SDS011;41530;52.382;5.270;2023-02-15T05:33:34;9.25;;;5.55;;
55655;SDS011;41530;52.382;5.270;2023-02-15T05:36:01;10.35;;;5.90;;
55655;SDS011;41530;52.382;5.270;2023-02-15T05:38:29;6.97;;;5.50;;
55655;SDS011;41530;52.382;5.270;2023-02-15T05:40:57;8.55;;;5.70;;
55655;SDS011;41530;52.382;5.270;2023-02-15T05:43:24;8.07;;;5.65;;
55655;SDS011;41530;52.382;5.270;2023-02-15T05:45:52;8.55;;;5.32;;
55655;SDS011;41530;52.382;5.270;2023-02-15T05:48:21;7.45;;;5.15;;
55655;SDS011;41530;52.382;5.270;2023-02-15T05:50:58;9.73;;;5.70;;
55655;SDS011;41530;52.382;5.270;2023-02-15T05:53:27;7.75;;;5.68;;
55655;SDS011;41530;52.382;5.270;2023-02-15T05:55:54;9.15;;;5.70;;
55655;SDS011;41530;52.382;5.270;2023-02-15T05:58:26;8.30;;;5.65;;
55655;SDS011;41530;52.382;5.270;2023-02-15T06:00:53;8.45;;;6.07;;
55655;SDS011;41530;52.382;5.270;2023-02-15T06:03:20;7.78;;;5.47;;
55655;SDS011;41530;52.382;5.270;2023-02-15T06:05:48;8.05;;;5.30;;
55655;SDS011;41530;52.382;5.270;2023-02-15T06:08:15;8.77;;;5.22;;
55655;SDS011;41530;52.382;5.270;2023-02-15T06:10:41;6.80;;;4.78;;
55655;SDS011;41530;52.382;5.270;2023-02-15T06:13:08;7.90;;;4.85;;
55655;SDS011;41530;52.382;5.270;2023-02-15T06:15:35;7.20;;;5.13;;
55655;SDS011;41530;52.382;5.270;2023-02-15T06:18:01;7.07;;;5.03;;
55655;SDS011;41530;52.382;5.270;2023-02-15T06:20:28;7.70;;;5.30;;
55655;SDS011;41530;52.382;5.270;2023-02-15T06:22:55;7.00;;;5.07;;
55655;SDS011;41530;52.382;5.270;2023-02-15T06:25:21;7.70;;;5.03;;
55655;SDS011;41530;52.382;5.270;2023-02-15T06:27:48;6.68;;;4.80;;
55655;SDS011;41530;52.382;5.270;2023-02-15T06:30:15;7.82;;;4.65;;
55655;SDS011;41530;52.382;5.270;2023-02-15T06:32:42;6.93;;;4.65;;
55655;SDS011;41530;52.382;5.270;2023-02-15T06:35:09;8.35;;;5.00;;
55655;SDS011;41530;52.382;5.270;2023-02-15T06:37:36;7.43;;;5.13;;
55655;SDS011;41530;52.382;5.270;2023-02-15T06:40:02;7.20;;;4.88;;
55655;SDS011;41530;52.382;5.270;2023-02-15T06:42:30;6.63;;;4.72;;
55655;SDS011;41530;52.382;5.270;2023-02-15T06:44:57;8.30;;;4.22;;
55655;SDS011;41530;52.382;5.270;2023-02-15T06:47:25;10.45;;;4.90;;
55655;SDS011;41530;52.382;5.270;2023-02-15T06:49:51;7.07;;;4.80;;
55655;SDS011;41530;52.382;5.270;2023-02-15T06:52:18;7.10;;;4.60;;
55655;SDS011;41530;52.382;5.270;2023-02-15T06:54:45;15.48;;;4.72;;
55655;SDS011;41530;52.382;5.270;2023-02-15T06:57:11;8.00;;;4.50;;
55655;SDS011;41530;52.382;5.270;2023-02-15T06:59:38;10.63;;;4.78;;
55655;SDS011;41530;52.382;5.270;2023-02-15T07:02:04;8.73;;;5.00;;
55655;SDS011;41530;52.382;5.270;2023-02-15T07:04:31;6.38;;;4.72;;
55655;SDS011;41530;52.382;5.270;2023-02-15T07:06:58;7.47;;;5.35;;
55655;SDS011;41530;52.382;5.270;2023-02-15T07:09:25;8.57;;;5.53;;
55655;SDS011;41530;52.382;5.270;2023-02-15T07:11:52;7.07;;;4.75;;
55655;SDS011;41530;52.382;5.270;2023-02-15T07:14:37;8.02;;;5.20;;
55655;SDS011;41530;52.382;5.270;2023-02-15T07:17:03;8.50;;;4.55;;
55655;SDS011;41530;52.382;5.270;2023-02-15T07:19:39;6.50;;;4.47;;
55655;SDS011;41530;52.382;5.270;2023-02-15T07:22:06;8.07;;;4.80;;
55655;SDS011;41530;52.382;5.270;2023-02-15T07:24:33;9.77;;;4.55;;
55655;SDS011;41530;52.382;5.270;2023-02-15T07:26:59;7.68;;;4.88;;
55655;SDS011;41530;52.382;5.270;2023-02-15T07:29:26;7.05;;;4.90;;
55655;SDS011;41530;52.382;5.270;2023-02-15T07:31:52;7.68;;;4.82;;
55655;SDS011;41530;52.382;5.270;2023-02-15T07:34:19;6.60;;;4.70;;
55655;SDS011;41530;52.382;5.270;2023-02-15T07:36:46;8.05;;;4.50;;
55655;SDS011;41530;52.382;5.270;2023-02-15T07:39:13;6.93;;;4.22;;
55655;SDS011;41530;52.382;5.270;2023-02-15T07:41:39;8.25;;;5.07;;
55655;SDS011;41530;52.382;5.270;2023-02-15T07:44:09;8.55;;;5.50;;
55655;SDS011;41530;52.382;5.270;2023-02-15T07:46:38;8.15;;;5.50;;
55655;SDS011;41530;52.382;5.270;2023-02-15T07:49:05;11.07;;;5.45;;
55655;SDS011;41530;52.382;5.270;2023-02-15T07:51:32;8.77;;;5.47;;
55655;SDS011;41530;52.382;5.270;2023-02-15T07:53:58;12.05;;;6.32;;
55655;SDS011;41530;52.382;5.270;2023-02-15T07:56:25;9.48;;;6.10;;
55655;SDS011;41530;52.382;5.270;2023-02-15T07:58:52;11.20;;;6.32;;
55655;SDS011;41530;52.382;5.270;2023-02-15T08:01:20;13.85;;;5.95;;
55655;SDS011;41530;52.382;5.270;2023-02-15T08:03:52;9.18;;;5.97;;
55655;SDS011;41530;52.382;5.270;2023-02-15T08:06:21;9.10;;;6.13;;
55655;SDS011;41530;52.382;5.270;2023-02-15T08:08:49;11.02;;;6.28;;
55655;SDS011;41530;52.382;5.270;2023-02-15T08:13:52;10.13;;;5.80;;
55655;SDS011;41530;52.382;5.270;2023-02-15T08:16:27;9.80;;;6.05;;
55655;SDS011;41530;52.382;5.270;2023-02-15T08:19:08;7.43;;;5.57;;
55655;SDS011;41530;52.382;5.270;2023-02-15T08:21:47;9.43;;;6.00;;
55655;SDS011;41530;52.382;5.270;2023-02-15T08:24:18;8.23;;;5.20;;
55655;SDS011;41530;52.382;5.270;2023-02-15T08:26:46;10.85;;;6.00;;
55655;SDS011;41530;52.382;5.270;2023-02-15T08:29:14;8.60;;;5.72;;
55655;SDS011;41530;52.382;5.270;2023-02-15T08:31:42;10.35;;;5.95;;
55655;SDS011;41530;52.382;5.270;2023-02-15T08:34:10;11.98;;;6.05;;
55655;SDS011;41530;52.382;5.270;2023-02-15T08:36:39;9.73;;;6.53;;
55655;SDS011;41530;52.382;5.270;2023-02-15T08:39:06;7.78;;;5.50;;
55655;SDS011;41530;52.382;5.270;2023-02-15T08:41:34;9.98;;;5.95;;
55655;SDS011;41530;52.382;5.270;2023-02-15T08:44:03;9.25;;;5.40;;
55655;SDS011;41530;52.382;5.270;2023-02-15T08:46:32;6.28;;;4.93;;
55655;SDS011;41530;52.382;5.270;2023-02-15T08:49:04;8.02;;;5.32;;
55655;SDS011;41530;52.382;5.270;2023-02-15T08:51:32;8.52;;;5.43;;
55655;SDS011;41530;52.382;5.270;2023-02-15T08:54:02;7.53;;;5.30;;
55655;SDS011;41530;52.382;5.270;2023-02-15T08:56:34;8.63;;;5.53;;
55655;SDS011;41530;52.382;5.270;2023-02-15T08:59:04;7.65;;;4.85;;
55655;SDS011;41530;52.382;5.270;2023-02-15T09:01:32;8.45;;;5.25;;
55655;SDS011;41530;52.382;5.270;2023-02-15T09:04:03;8.63;;;5.22;;
55655;SDS011;41530;52.382;5.270;2023-02-15T09:06:32;7.78;;;5.15;;
55655;SDS011;41530;52.382;5.270;2023-02-15T09:08:59;7.88;;;5.50;;
55655;SDS011;41530;52.382;5.270;2023-02-15T09:11:27;5.80;;;4.40;;
55655;SDS011;41530;52.382;5.270;2023-02-15T09:13:58;12.18;;;4.97;;
55655;SDS011;41530;52.382;5.270;2023-02-15T09:16:28;7.40;;;4.35;;
55655;SDS011;41530;52.382;5.270;2023-02-15T09:18:57;6.00;;;4.63;;
55655;SDS011;41530;52.382;5.270;2023-02-15T09:21:25;7.93;;;5.40;;
55655;SDS011;41530;52.382;5.270;2023-02-15T09:23:55;7.32;;;4.70;;
55655;SDS011;41530;52.382;5.270;2023-02-15T09:26:23;9.15;;;5.00;;
55655;SDS011;41530;52.382;5.270;2023-02-15T09:28:51;6.93;;;4.70;;
55655;SDS011;41530;52.382;5.270;2023-02-15T09:31:24;9.05;;;5.40;;
55655;SDS011;41530;52.382;5.270;2023-02-15T09:33:52;6.97;;;4.90;;
55655;SDS011;41530;52.382;5.270;2023-02-15T09:47:55;5.82;;;4.15;;
55655;SDS011;41530;52.382;5.270;2023-02-15T09:56:14;8.98;;;4.20;;
55655;SDS011;41530;52.382;5.270;2023-02-15T10:02:00;6.80;;;4.32;;
55655;SDS011;41530;52.382;5.270;2023-02-15T10:24:07;6.45;;;4.15;;
55655;SDS011;41530;52.382;5.270;2023-02-15T10:27:13;5.60;;;3.88;;
55655;SDS011;41530;52.382;5.270;2023-02-15T10:29:48;5.47;;;3.97;;
55655;SDS011;41530;52.382;5.270;2023-02-15T10:32:25;6.50;;;3.90;;
55655;SDS011;41530;52.382;5.270;2023-02-15T10:35:00;5.50;;;3.33;;
55655;SDS011;41530;52.382;5.270;2023-02-15T10:51:02;5.70;;;3.83;;
55655;SDS011;41530;52.382;5.270;2023-02-15T10:56:20;5.38;;;3.78;;
55655;SDS011;41530;52.382;5.270;2023-02-15T11:01:40;5.07;;;3.80;;
55655;SDS011;41530;52.382;5.270;2023-02-15T11:09:44;6.20;;;4.10;;
55655;SDS011;41530;52.382;5.270;2023-02-15T11:17:22;6.82;;;4.10;;
55655;SDS011;41530;52.382;5.270;2023-02-15T11:22:47;5.95;;;4.07;;
55655;SDS011;41530;52.382;5.270;2023-02-15T11:25:20;5.88;;;3.88;;
55655;SDS011;41530;52.382;5.270;2023-02-15T11:27:51;5.50;;;4.00;;
55655;SDS011;41530;52.382;5.270;2023-02-15T11:30:19;5.63;;;3.97;;
55655;SDS011;41530;52.382;5.270;2023-02-15T11:32:55;6.07;;;3.80;;
55655;SDS011;41530;52.382;5.270;2023-02-15T11:35:26;6.13;;;4.00;;
55655;SDS011;41530;52.382;5.270;2023-02-15T11:38:11;7.30;;;3.67;;
55655;SDS011;41530;52.382;5.270;2023-02-15T11:40:48;4.95;;;3.53;;
55655;SDS011;41530;52.382;5.270;2023-02-15T11:43:20;5.00;;;3.33;;
55655;SDS011;41530;52.382;5.270;2023-02-15T11:45:49;6.20;;;3.53;;
55655;SDS011;41530;52.382;5.270;2023-02-15T11:48:16;6.55;;;3.90;;
55655;SDS011;41530;52.382;5.270;2023-02-15T11:50:44;7.93;;;4.32;;
55655;SDS011;41530;52.382;5.270;2023-02-15T11:53:12;7.20;;;4.25;;
55655;SDS011;41530;52.382;5.270;2023-02-15T11:55:43;4.57;;;3.78;;
55655;SDS011;41530;52.382;5.270;2023-02-15T12:03:48;5.07;;;3.80;;
55655;SDS011;41530;52.382;5.270;2023-02-15T12:06:27;5.20;;;3.75;;
55655;SDS011;41530;52.382;5.270;2023-02-15T12:11:36;10.65;;;6.45;;
55655;SDS011;41530;52.382;5.270;2023-02-15T12:14:05;17.08;;;9.73;;
55655;SDS011;41530;52.382;5.270;2023-02-15T12:16:48;17.92;;;10.02;;
55655;SDS011;41530;52.382;5.270;2023-02-15T12:21:48;16.80;;;9.45;;
55655;SDS011;41530;52.382;5.270;2023-02-15T12:24:20;15.93;;;8.70;;
55655;SDS011;41530;52.382;5.270;2023-02-15T12:27:02;20.50;;;10.20;;
55655;SDS011;41530;52.382;5.270;2023-02-15T12:32:48;26.27;;;13.35;;
55655;SDS011;41530;52.382;5.270;2023-02-15T12:35:29;24.55;;;13.10;;
55655;SDS011;41530;52.382;5.270;2023-02-15T12:38:00;25.48;;;13.80;;
55655;SDS011;41530;52.382;5.270;2023-02-15T12:40:31;25.30;;;13.57;;
55655;SDS011;41530;52.382;5.270;2023-02-15T12:43:00;23.60;;;14.13;;
55655;SDS011;41530;52.382;5.270;2023-02-15T12:45:35;21.85;;;12.80;;
55655;SDS011;41530;52.382;5.270;2023-02-15T12:48:14;20.85;;;11.68;;
55655;SDS011;41530;52.382;5.270;2023-02-15T12:50:46;18.73;;;10.23;;
55655;SDS011;41530;52.382;5.270;2023-02-15T12:53:30;25.58;;;10.98;;
55655;SDS011;41530;52.382;5.270;2023-02-15T12:56:02;24.08;;;11.95;;
55655;SDS011;41530;52.382;5.270;2023-02-15T12:58:31;18.35;;;10.75;;
55655;SDS011;41530;52.382;5.270;2023-02-15T13:04:04;19.08;;;11.35;;
55655;SDS011;41530;52.382;5.270;2023-02-15T13:06:46;22.23;;;11.07;;
55655;SDS011;41530;52.382;5.270;2023-02-15T13:09:15;21.83;;;11.20;;
55655;SDS011;41530;52.382;5.270;2023-02-15T13:11:47;20.27;;;12.18;;
55655;SDS011;41530;52.382;5.270;2023-02-15T13:14:17;22.52;;;11.88;;
55655;SDS011;41530;52.382;5.270;2023-02-15T13:16:47;17.55;;;10.80;;
55655;SDS011;41530;52.382;5.270;2023-02-15T13:20:05;21.15;;;11.30;;
55655;SDS011;41530;52.382;5.270;2023-02-15T13:22:05;19.52;;;10.60;;
55655;SDS011;41530;52.382;5.270;2023-02-15T13:24:37;21.45;;;10.18;;
55655;SDS011;41530;52.382;5.270;2023-02-15T13:27:07;18.10;;;9.85;;
55655;SDS011;41530;52.382;5.270;2023-02-15T13:29:42;19.02;;;9.88;;
55655;SDS011;41530;52.382;5.270;2023-02-15T13:32:33;18.45;;;9.07;;
55655;SDS011;41530;52.382;5.270;2023-02-15T13:35:04;12.27;;;8.02;;
55655;SDS011;41530;52.382;5.270;2023-02-15T13:37:41;12.23;;;7.35;;
55655;SDS011;41530;52.382;5.270;2023-02-15T13:43:23;11.77;;;7.13;;
55655;SDS011;41530;52.382;5.270;2023-02-15T13:54:32;10.57;;;6.53;;
55655;SDS011;41530;52.382;5.270;2023-02-15T14:11:08;9.13;;;6.00;;
55655;SDS011;41530;52.382;5.270;2023-02-15T14:13:57;10.10;;;5.70;;
55655;SDS011;41530;52.382;5.270;2023-02-15T14:24:40;11.63;;;5.45;;
55655;SDS011;41530;52.382;5.270;2023-02-15T14:32:27;7.00;;;5.30;;
55655;SDS011;41530;52.382;5.270;2023-02-15T14:34:57;8.93;;;5.50;;
55655;SDS011;41530;52.382;5.270;2023-02-15T14:43:45;7.80;;;4.80;;
55655;SDS011;41530;52.382;5.270;2023-02-15T14:51:53;7.13;;;4.47;;
55655;SDS011;41530;52.382;5.270;2023-02-15T15:02:04;6.60;;;4.75;;
55655;SDS011;41530;52.382;5.270;2023-02-15T15:04:41;7.07;;;5.05;;
55655;SDS011;41530;52.382;5.270;2023-02-15T15:09:39;6.10;;;4.32;;
55655;SDS011;41530;52.382;5.270;2023-02-15T15:14:47;7.07;;;5.07;;
55655;SDS011;41530;52.382;5.270;2023-02-15T15:20:05;7.50;;;4.80;;
55655;SDS011;41530;52.382;5.270;2023-02-15T15:22:42;7.32;;;4.25;;
55655;SDS011;41530;52.382;5.270;2023-02-15T15:32:42;6.25;;;4.18;;
55655;SDS011;41530;52.382;5.270;2023-02-15T15:35:25;6.82;;;4.88;;
55655;SDS011;41530;52.382;5.270;2023-02-15T15:44:26;6.63;;;4.75;;
55655;SDS011;41530;52.382;5.270;2023-02-15T15:49:33;8.00;;;4.78;;
55655;SDS011;41530;52.382;5.270;2023-02-15T15:52:09;5.65;;;4.30;;
55655;SDS011;41530;52.382;5.270;2023-02-15T15:54:39;5.35;;;4.13;;
55655;SDS011;41530;52.382;5.270;2023-02-15T15:57:15;7.35;;;4.35;;
55655;SDS011;41530;52.382;5.270;2023-02-15T15:59:52;7.97;;;4.60;;
55655;SDS011;41530;52.382;5.270;2023-02-15T16:02:20;6.30;;;4.18;;
55655;SDS011;41530;52.382;5.270;2023-02-15T16:04:47;6.80;;;4.30;;
55655;SDS011;41530;52.382;5.270;2023-02-15T16:09:53;6.97;;;3.90;;
55655;SDS011;41530;52.382;5.270;2023-02-15T16:12:21;7.50;;;4.10;;
55655;SDS011;41530;52.382;5.270;2023-02-15T16:14:49;5.03;;;4.28;;
55655;SDS011;41530;52.382;5.270;2023-02-15T16:17:29;5.47;;;4.10;;
55655;SDS011;41530;52.382;5.270;2023-02-15T16:20:00;5.20;;;3.95;;
55655;SDS011;41530;52.382;5.270;2023-02-15T16:22:31;6.97;;;4.95;;
55655;SDS011;41530;52.382;5.270;2023-02-15T16:27:56;7.18;;;4.65;;
55655;SDS011;41530;52.382;5.270;2023-02-15T16:33:33;9.32;;;4.70;;
55655;SDS011;41530;52.382;5.270;2023-02-15T16:36:00;12.85;;;4.10;;
55655;SDS011;41530;52.382;5.270;2023-02-15T16:41:29;6.80;;;4.60;;
55655;SDS011;41530;52.382;5.270;2023-02-15T16:43:57;6.72;;;3.90;;
55655;SDS011;41530;52.382;5.270;2023-02-15T16:46:27;5.85;;;4.78;;
55655;SDS011;41530;52.382;5.270;2023-02-15T16:48:55;7.43;;;4.72;;
55655;SDS011;41530;52.382;5.270;2023-02-15T16:51:26;7.53;;;5.05;;
55655;SDS011;41530;52.382;5.270;2023-02-15T16:53:55;12.55;;;5.00;;
55655;SDS011;41530;52.382;5.270;2023-02-15T16:56:31;17.33;;;5.30;;
55655;SDS011;41530;52.382;5.270;2023-02-15T16:58:59;9.40;;;5.25;;
55655;SDS011;41530;52.382;5.270;2023-02-15T17:01:30;6.75;;;4.97;;
55655;SDS011;41530;52.382;5.270;2023-02-15T17:04:41;7.47;;;4.85;;
55655;SDS011;41530;52.382;5.270;2023-02-15T17:06:57;8.93;;;4.95;;
55655;SDS011;41530;52.382;5.270;2023-02-15T17:09:30;7.55;;;5.45;;
55655;SDS011;41530;52.382;5.270;2023-02-15T17:11:57;10.80;;;5.18;;
55655;SDS011;41530;52.382;5.270;2023-02-15T17:14:31;10.13;;;5.78;;
55655;SDS011;41530;52.382;5.270;2023-02-15T17:17:06;9.48;;;5.68;;
55655;SDS011;41530;52.382;5.270;2023-02-15T17:19:47;9.20;;;5.45;;
55655;SDS011;41530;52.382;5.270;2023-02-15T17:22:23;9.18;;;5.60;;
55655;SDS011;41530;52.382;5.270;2023-02-15T17:24:57;7.18;;;5.32;;
55655;SDS011;41530;52.382;5.270;2023-02-15T17:27:29;8.75;;;5.70;;
55655;SDS011;41530;52.382;5.270;2023-02-15T17:30:00;8.77;;;5.97;;
55655;SDS011;41530;52.382;5.270;2023-02-15T17:32:30;8.77;;;5.70;;
55655;SDS011;41530;52.382;5.270;2023-02-15T17:37:47;5.78;;;4.68;;
55655;SDS011;41530;52.382;5.270;2023-02-15T17:42:47;7.38;;;5.05;;
55655;SDS011;41530;52.382;5.270;2023-02-15T17:45:14;12.48;;;5.65;;
55655;SDS011;41530;52.382;5.270;2023-02-15T17:47:41;12.40;;;5.05;;
55655;SDS011;41530;52.382;5.270;2023-02-15T17:50:15;13.07;;;4.97;;
55655;SDS011;41530;52.382;5.270;2023-02-15T17:52:53;9.15;;;5.43;;
55655;SDS011;41530;52.382;5.270;2023-02-15T17:55:21;8.95;;;5.78;;
55655;SDS011;41530;52.382;5.270;2023-02-15T17:58:03;9.32;;;5.68;;
55655;SDS011;41530;52.382;5.270;2023-02-15T18:00:32;8.48;;;5.47;;
55655;SDS011;41530;52.382;5.270;2023-02-15T18:03:20;10.38;;;5.63;;
55655;SDS011;41530;52.382;5.270;2023-02-15T18:06:06;8.25;;;5.30;;
55655;SDS011;41530;52.382;5.270;2023-02-15T18:08:51;9.85;;;5.75;;
55655;SDS011;41530;52.382;5.270;2023-02-15T18:11:37;7.88;;;5.05;;
55655;SDS011;41530;52.382;5.270;2023-02-15T18:14:05;7.57;;;4.75;;
55655;SDS011;41530;52.382;5.270;2023-02-15T18:16:34;8.35;;;5.47;;
55655;SDS011;41530;52.382;5.270;2023-02-15T18:19:04;9.20;;;5.82;;
55655;SDS011;41530;52.382;5.270;2023-02-15T18:21:32;10.20;;;5.55;;
55655;SDS011;41530;52.382;5.270;2023-02-15T18:23:59;8.02;;;5.38;;
55655;SDS011;41530;52.382;5.270;2023-02-15T18:26:25;13.05;;;6.00;;
55655;SDS011;41530;52.382;5.270;2023-02-15T18:28:52;13.68;;;6.25;;
55655;SDS011;41530;52.382;5.270;2023-02-15T18:31:19;9.23;;;6.25;;
55655;SDS011;41530;52.382;5.270;2023-02-15T18:33:49;9.00;;;5.03;;
55655;SDS011;41530;52.382;5.270;2023-02-15T18:36:23;7.05;;;5.38;;
55655;SDS011;41530;52.382;5.270;2023-02-15T18:38:54;9.73;;;5.63;;
55655;SDS011;41530;52.382;5.270;2023-02-15T18:41:21;8.60;;;5.55;;
55655;SDS011;41530;52.382;5.270;2023-02-15T18:43:48;9.48;;;5.47;;
55655;SDS011;41530;52.382;5.270;2023-02-15T18:46:15;9.48;;;5.75;;
55655;SDS011;41530;52.382;5.270;2023-02-15T18:48:42;9.77;;;6.20;;
55655;SDS011;41530;52.382;5.270;2023-02-15T18:53:51;9.88;;;5.82;;
55655;SDS011;41530;52.382;5.270;2023-02-15T18:56:19;9.20;;;5.70;;
55655;SDS011;41530;52.382;5.270;2023-02-15T18:58:47;13.05;;;6.32;;
55655;SDS011;41530;52.382;5.270;2023-02-15T19:01:15;8.10;;;5.70;;
55655;SDS011;41530;52.382;5.270;2023-02-15T19:03:44;8.85;;;5.45;;